createdAt,value
2022-08-30T00:01:14.561Z,4.55
2022-08-30T00:03:45.744Z,7.75
2022-08-30T00:06:14.793Z,7.15
2022-08-30T00:08:42.425Z,6.00
2022-08-30T00:11:11.311Z,5.65
2022-08-30T00:13:39.025Z,3.78
2022-08-30T00:16:09.492Z,5.28
2022-08-30T00:18:36.547Z,4.85
2022-08-30T00:21:03.667Z,5.88
2022-08-30T00:23:30.184Z,4.13
2022-08-30T00:25:56.658Z,6.10
2022-08-30T00:28:23.672Z,6.10
2022-08-30T00:30:50.672Z,6.65
2022-08-30T00:33:17.545Z,5.20
2022-08-30T00:35:44.691Z,5.18
2022-08-30T00:38:12.980Z,6.10
2022-08-30T00:40:41.715Z,7.47
2022-08-30T00:43:16.411Z,6.18
2022-08-30T00:45:46.097Z,6.03
2022-08-30T00:48:12.755Z,7.05
2022-08-30T00:50:43.588Z,4.40
2022-08-30T00:53:18.321Z,5.28
2022-08-30T00:55:45.403Z,5.35
2022-08-30T00:58:17.134Z,9.35
2022-08-30T01:00:44.042Z,7.10
2022-08-30T01:03:10.570Z,6.75
2022-08-30T01:05:39.239Z,5.05
2022-08-30T01:08:06.279Z,6.78
2022-08-30T01:10:37.572Z,8.13
2022-08-30T01:13:04.590Z,6.80
2022-08-30T01:15:32.869Z,5.05
2022-08-30T01:18:00.748Z,5.82
2022-08-30T01:20:32.523Z,6.20
2022-08-30T01:23:20.175Z,9.88
2022-08-30T01:25:49.056Z,5.95
2022-08-30T01:28:24.962Z,7.82
2022-08-30T01:30:52.564Z,6.28
2022-08-30T01:33:21.158Z,8.05
2022-08-30T01:36:01.482Z,8.77
2022-08-30T01:38:36.145Z,6.35
2022-08-30T01:41:20.347Z,6.85
2022-08-30T01:43:47.789Z,5.25
2022-08-30T01:46:16.557Z,6.07
2022-08-30T01:48:54.941Z,5.45
2022-08-30T01:53:48.987Z,6.90
2022-08-30T01:56:17.966Z,11.13
2022-08-30T01:58:47.649Z,9.07
2022-08-30T02:01:15.908Z,10.07
2022-08-30T02:03:45.720Z,10.52
2022-08-30T02:06:18.509Z,6.10
2022-08-30T02:08:45.979Z,5.75
2022-08-30T02:11:13.064Z,6.03
2022-08-30T02:13:41.380Z,8.60
2022-08-30T02:16:09.741Z,9.98
2022-08-30T02:18:38.507Z,13.68
2022-08-30T02:21:05.535Z,8.93
2022-08-30T02:23:32.019Z,8.07
2022-08-30T02:25:58.982Z,10.73
2022-08-30T02:28:25.833Z,5.75
2022-08-30T02:30:52.577Z,6.88
2022-08-30T02:33:19.228Z,7.38
2022-08-30T02:35:45.775Z,11.38
2022-08-30T02:38:12.787Z,12.82
2022-08-30T02:40:39.664Z,11.98
2022-08-30T02:43:07.285Z,10.40
2022-08-30T02:45:36.281Z,9.60
2022-08-30T02:48:09.824Z,7.75
2022-08-30T02:50:42.746Z,5.85
2022-08-30T02:53:09.406Z,7.18
2022-08-30T02:55:38.258Z,4.72
2022-08-30T02:58:05.102Z,3.33
2022-08-30T03:00:31.700Z,3.65
2022-08-30T03:02:58.309Z,5.18
2022-08-30T03:05:25.167Z,2.88
2022-08-30T03:07:52.746Z,2.97
2022-08-30T03:10:19.269Z,3.95
2022-08-30T03:12:47.889Z,3.50
2022-08-30T03:15:15.470Z,3.95
2022-08-30T03:17:44.570Z,3.22
2022-08-30T03:20:11.936Z,2.75
2022-08-30T03:22:39.341Z,3.90
2022-08-30T03:25:06.303Z,3.10
2022-08-30T03:27:32.787Z,3.75
2022-08-30T03:29:59.253Z,6.00
2022-08-30T03:32:26.019Z,5.25
2022-08-30T03:34:52.518Z,4.45
2022-08-30T03:37:27.509Z,2.88
2022-08-30T03:39:57.286Z,3.47
2022-08-30T03:42:24.778Z,3.05
2022-08-30T03:44:51.816Z,3.55
2022-08-30T03:47:18.302Z,2.90
2022-08-30T03:49:48.989Z,3.65
2022-08-30T03:52:15.453Z,4.38
2022-08-30T03:54:42.752Z,4.55
2022-08-30T03:57:09.339Z,4.57
2022-08-30T03:59:52.965Z,6.45
2022-08-30T04:02:20.385Z,5.10
2022-08-30T04:04:48.300Z,4.20
2022-08-30T04:07:14.789Z,5.65
2022-08-30T04:09:41.832Z,4.25
2022-08-30T04:12:08.378Z,6.43
2022-08-30T04:14:34.842Z,6.10
2022-08-30T04:17:01.364Z,4.50
2022-08-30T04:19:27.861Z,4.78
2022-08-30T04:21:55.225Z,4.35
2022-08-30T04:24:21.672Z,4.60
2022-08-30T04:26:48.167Z,5.05
2022-08-30T04:29:17.566Z,4.00
2022-08-30T04:31:45.176Z,5.03
2022-08-30T04:34:12.871Z,3.22
2022-08-30T04:36:40.374Z,3.97
2022-08-30T04:39:07.257Z,3.90
2022-08-30T04:41:37.773Z,4.28
2022-08-30T04:44:04.328Z,3.85
2022-08-30T04:46:30.949Z,5.53
2022-08-30T04:48:57.506Z,3.70
2022-08-30T04:51:23.939Z,7.60
2022-08-30T04:53:50.531Z,4.68
2022-08-30T04:56:27.970Z,6.78
2022-08-30T04:58:55.293Z,8.52
2022-08-30T05:01:27.113Z,8.65
2022-08-30T05:03:55.561Z,6.85
2022-08-30T05:06:23.490Z,7.18
2022-08-30T05:08:50.151Z,5.43
2022-08-30T05:11:23.598Z,8.27
2022-08-30T05:13:52.553Z,5.63
2022-08-30T05:16:21.481Z,5.32
2022-08-30T05:18:51.021Z,6.20
2022-08-30T05:21:27.564Z,9.07
2022-08-30T05:23:58.003Z,7.15
2022-08-30T05:26:32.445Z,10.85
2022-08-30T05:28:59.120Z,11.82
2022-08-30T05:31:32.100Z,7.95
2022-08-30T05:34:06.344Z,7.22
2022-08-30T05:36:39.530Z,8.43
2022-08-30T05:39:10.109Z,7.13
2022-08-30T05:41:39.745Z,8.02
2022-08-30T05:44:11.261Z,7.28
2022-08-30T05:46:45.736Z,5.05
2022-08-30T05:49:12.284Z,4.50
2022-08-30T05:51:42.867Z,6.97
2022-08-30T05:54:11.100Z,7.22
2022-08-30T05:56:39.268Z,8.48
2022-08-30T05:59:07.282Z,9.65
2022-08-30T06:01:37.872Z,8.40
2022-08-30T06:04:05.543Z,7.13
2022-08-30T06:06:33.593Z,5.03
2022-08-30T06:09:00.071Z,9.40
2022-08-30T06:11:27.240Z,4.80
2022-08-30T06:13:54.390Z,6.25
2022-08-30T06:16:23.098Z,7.25
2022-08-30T06:18:50.348Z,5.15
2022-08-30T06:21:21.016Z,5.13
2022-08-30T06:23:47.565Z,10.00
2022-08-30T06:26:14.300Z,7.35
2022-08-30T06:28:40.837Z,7.43
2022-08-30T06:31:12.919Z,9.20
2022-08-30T06:36:07.932Z,7.18
2022-08-30T06:38:34.606Z,6.57
2022-08-30T06:41:05.666Z,6.53
2022-08-30T06:43:32.136Z,14.45
2022-08-30T06:46:06.807Z,7.60
2022-08-30T06:48:33.452Z,5.90
2022-08-30T06:51:00.011Z,5.32
2022-08-30T06:53:26.975Z,4.43
2022-08-30T06:56:10.545Z,4.65
2022-08-30T06:58:38.420Z,6.97
2022-08-30T07:01:12.011Z,3.85
2022-08-30T07:03:38.738Z,7.75
2022-08-30T07:06:05.817Z,5.40
2022-08-30T07:08:33.071Z,5.00
2022-08-30T07:10:59.620Z,7.55
2022-08-30T07:13:27.403Z,6.38
2022-08-30T07:15:54.011Z,5.72
2022-08-30T07:18:40.618Z,5.28
2022-08-30T07:21:13.798Z,3.72
2022-08-30T07:23:40.448Z,3.83
2022-08-30T07:26:09.028Z,4.93
2022-08-30T07:28:38.198Z,3.80
2022-08-30T07:31:05.971Z,5.45
2022-08-30T07:33:32.914Z,4.07
2022-08-30T07:35:59.707Z,4.70
2022-08-30T07:38:30.320Z,4.22
2022-08-30T07:41:01.063Z,6.25
2022-08-30T07:43:28.635Z,5.75
2022-08-30T07:45:56.022Z,4.75
2022-08-30T07:48:22.544Z,7.13
2022-08-30T07:50:50.167Z,4.60
2022-08-30T07:53:18.288Z,5.40
2022-08-30T07:55:44.907Z,4.38
2022-08-30T07:58:18.183Z,4.53
2022-08-30T08:00:47.871Z,4.65
2022-08-30T08:03:14.475Z,5.10
2022-08-30T08:05:43.756Z,8.77
2022-08-30T08:08:10.967Z,6.70
2022-08-30T08:10:39.161Z,3.97
2022-08-30T08:13:05.862Z,6.30
2022-08-30T08:15:32.896Z,4.13
2022-08-30T08:18:02.643Z,4.88
2022-08-30T08:20:29.316Z,3.55
2022-08-30T08:22:55.775Z,3.63
2022-08-30T08:25:23.171Z,4.07
2022-08-30T08:27:51.570Z,2.88
2022-08-30T08:30:19.732Z,4.43
2022-08-30T08:32:46.668Z,3.03
2022-08-30T08:35:13.799Z,5.05
2022-08-30T08:37:40.586Z,4.07
2022-08-30T08:40:08.156Z,3.33
2022-08-30T08:42:51.775Z,3.72
2022-08-30T08:45:24.541Z,2.50
2022-08-30T08:48:01.466Z,3.50
2022-08-30T08:50:30.888Z,4.50
2022-08-30T08:53:36.194Z,2.78
2022-08-30T08:56:12.614Z,3.05
2022-08-30T08:58:46.965Z,2.70
2022-08-30T09:01:15.681Z,4.78
2022-08-30T09:03:42.752Z,2.63
2022-08-30T09:06:51.125Z,3.03
2022-08-30T09:09:21.034Z,2.47
2022-08-30T09:11:48.132Z,2.95
2022-08-30T09:14:30.218Z,3.10
2022-08-30T09:16:56.832Z,3.10
2022-08-30T09:19:40.162Z,4.60
2022-08-30T09:22:14.149Z,4.43
2022-08-30T09:24:49.915Z,3.15
2022-08-30T09:27:17.634Z,3.92
2022-08-30T09:30:01.622Z,2.80
2022-08-30T09:32:40.156Z,2.90
2022-08-30T09:35:10.488Z,3.05
2022-08-30T09:37:39.237Z,2.33
2022-08-30T09:40:12.821Z,3.33
2022-08-30T09:42:39.403Z,3.55
2022-08-30T09:45:20.284Z,4.03
2022-08-30T09:47:46.840Z,3.67
2022-08-30T09:50:21.092Z,5.13
2022-08-30T09:53:10.521Z,3.88
2022-08-30T09:56:10.180Z,3.13
2022-08-30T09:59:08.104Z,3.65
2022-08-30T10:01:43.422Z,4.18
2022-08-30T10:04:40.566Z,4.20
2022-08-30T10:07:14.215Z,5.88
2022-08-30T10:10:01.650Z,7.53
2022-08-30T10:12:46.964Z,4.03
2022-08-30T10:15:21.873Z,3.92
2022-08-30T10:17:56.304Z,5.18
2022-08-30T10:20:30.463Z,5.50
2022-08-30T10:23:05.056Z,3.22
2022-08-30T10:25:38.951Z,3.75
2022-08-30T10:28:10.884Z,3.08
2022-08-30T10:30:39.435Z,2.83
2022-08-30T10:33:06.644Z,2.85
2022-08-30T10:36:02.943Z,2.83
2022-08-30T10:38:46.697Z,3.30
2022-08-30T10:41:22.012Z,3.53
2022-08-30T10:43:59.667Z,2.90
2022-08-30T10:47:01.124Z,3.55
2022-08-30T10:49:33.726Z,3.33
2022-08-30T10:52:15.945Z,5.38
2022-08-30T10:54:51.801Z,2.83
2022-08-30T10:57:18.647Z,3.50
2022-08-30T10:59:58.483Z,8.68
2022-08-30T11:02:34.164Z,3.92
2022-08-30T11:05:03.491Z,3.20
2022-08-30T11:07:52.037Z,2.95
2022-08-30T11:10:49.505Z,4.55
2022-08-30T11:13:25.461Z,3.22
2022-08-30T11:16:15.618Z,3.75
2022-08-30T11:18:52.060Z,2.75
2022-08-30T11:21:23.646Z,4.03
2022-08-30T11:24:28.866Z,3.00
2022-08-30T11:26:58.542Z,3.13
2022-08-30T11:29:39.997Z,4.72
2022-08-30T11:32:12.482Z,3.28
2022-08-30T11:34:45.441Z,3.17
2022-08-30T11:37:42.515Z,4.63
2022-08-30T11:40:53.161Z,4.45
2022-08-30T11:43:35.256Z,4.07
2022-08-30T11:46:26.560Z,3.58
2022-08-30T11:49:05.385Z,3.35
2022-08-30T11:52:27.125Z,5.28
2022-08-30T11:55:13.629Z,4.03
2022-08-30T11:57:55.329Z,3.35
2022-08-30T12:00:37.298Z,5.53
2022-08-30T12:03:16.204Z,3.42
2022-08-30T12:05:44.488Z,4.38
2022-08-30T12:08:34.079Z,4.75
2022-08-30T12:11:19.051Z,4.18
2022-08-30T12:13:45.532Z,5.80
2022-08-30T12:16:35.259Z,3.63
2022-08-30T12:19:20.676Z,4.32
2022-08-30T12:21:58.968Z,3.58
2022-08-30T12:26:53.600Z,3.70
2022-08-30T12:29:19.983Z,6.65
2022-08-30T12:31:58.079Z,4.57
2022-08-30T12:35:01.363Z,6.97
2022-08-30T12:40:04.561Z,3.42
2022-08-30T12:42:34.995Z,3.60
2022-08-30T12:45:06.836Z,3.53
2022-08-30T12:47:40.158Z,5.30
2022-08-30T12:50:07.729Z,4.78
2022-08-30T12:52:41.433Z,3.53
2022-08-30T12:55:17.363Z,3.53
2022-08-30T12:58:05.055Z,4.68
2022-08-30T13:00:36.611Z,4.68
2022-08-30T13:03:36.586Z,4.13
2022-08-30T13:06:07.887Z,3.53
2022-08-30T13:08:44.495Z,5.03
2022-08-30T13:11:30.177Z,3.35
2022-08-30T13:14:21.902Z,5.00
2022-08-30T13:16:49.360Z,3.53
2022-08-30T13:19:18.551Z,4.68
2022-08-30T13:21:53.733Z,3.47
2022-08-30T13:24:25.641Z,5.03
2022-08-30T13:26:56.388Z,5.80
2022-08-30T13:29:27.070Z,3.65
2022-08-30T13:31:57.060Z,4.43
2022-08-30T13:34:26.680Z,7.93
2022-08-30T13:36:55.773Z,3.95
2022-08-30T13:39:22.559Z,4.43
2022-08-30T13:41:50.107Z,4.28
2022-08-30T13:44:18.642Z,4.03
2022-08-30T13:46:55.817Z,4.32
2022-08-30T13:49:44.952Z,4.68
2022-08-30T13:52:21.111Z,8.48
2022-08-30T13:54:52.570Z,4.70
2022-08-30T14:00:25.518Z,6.03
2022-08-30T14:02:57.476Z,5.38
2022-08-30T14:05:48.721Z,8.20
2022-08-30T14:11:09.583Z,5.32
2022-08-30T14:13:36.947Z,4.80
2022-08-30T14:19:00.892Z,7.32
2022-08-30T14:21:30.751Z,3.72
2022-08-30T14:23:57.963Z,8.88
2022-08-30T14:26:32.525Z,4.35
2022-08-30T14:29:00.389Z,5.40
2022-08-30T14:31:32.903Z,7.43
2022-08-30T14:35:11.118Z,3.55
2022-08-30T14:41:04.730Z,4.15
2022-08-30T14:43:33.336Z,3.97
2022-08-30T14:46:01.104Z,4.22
2022-08-30T14:48:30.131Z,4.00
2022-08-30T14:51:24.425Z,10.50
2022-08-30T14:53:53.118Z,5.43
2022-08-30T14:56:20.815Z,6.55
2022-08-30T14:58:49.811Z,3.78
2022-08-30T15:01:20.131Z,13.57
2022-08-30T15:03:46.784Z,4.72
2022-08-30T15:06:13.600Z,3.67
2022-08-30T15:08:40.192Z,4.95
2022-08-30T15:11:11.877Z,4.55
2022-08-30T15:16:17.002Z,5.03
2022-08-30T15:18:43.973Z,4.82
2022-08-30T15:21:10.785Z,6.82
2022-08-30T15:23:42.074Z,4.40
2022-08-30T15:26:09.801Z,5.55
2022-08-30T15:28:36.665Z,5.82
2022-08-30T15:31:08.235Z,5.63
2022-08-30T15:33:36.632Z,5.18
2022-08-30T15:36:04.848Z,5.00
2022-08-30T15:38:31.889Z,3.97
2022-08-30T15:41:02.150Z,6.38
2022-08-30T15:43:28.677Z,4.60
2022-08-30T15:45:56.271Z,6.28
2022-08-30T15:48:23.399Z,4.50
2022-08-30T15:50:58.181Z,4.05
2022-08-30T15:53:24.660Z,6.47
2022-08-30T15:55:51.603Z,4.45
2022-08-30T15:58:18.756Z,3.63
2022-08-30T16:00:48.697Z,6.20
2022-08-30T16:03:15.562Z,4.35
2022-08-30T16:05:42.962Z,4.80
2022-08-30T16:08:09.922Z,5.45
2022-08-30T16:10:36.362Z,5.68
2022-08-30T16:13:02.965Z,5.88
2022-08-30T16:15:30.289Z,5.72
2022-08-30T16:17:56.914Z,4.28
2022-08-30T16:20:36.781Z,3.15
2022-08-30T16:23:03.220Z,4.75
2022-08-30T16:25:40.045Z,5.72
2022-08-30T16:28:10.600Z,7.22
2022-08-30T16:30:40.717Z,7.82
2022-08-30T16:33:07.173Z,5.57
2022-08-30T16:35:33.637Z,4.88
2022-08-30T16:38:00.195Z,6.45
2022-08-30T16:40:26.876Z,4.43
2022-08-30T16:42:53.347Z,7.85
2022-08-30T16:45:20.028Z,4.88
2022-08-30T16:47:46.537Z,8.13
2022-08-30T16:50:13.634Z,8.43
2022-08-30T16:52:43.609Z,5.00
2022-08-30T16:55:10.739Z,4.28
2022-08-30T16:57:37.190Z,4.20
2022-08-30T17:00:07.596Z,4.53
2022-08-30T17:02:40.027Z,4.65
2022-08-30T17:05:09.607Z,5.68
2022-08-30T17:07:38.811Z,5.93
2022-08-30T17:10:05.963Z,5.75
2022-08-30T17:12:35.381Z,5.53
2022-08-30T17:15:05.564Z,5.65
2022-08-30T17:17:32.565Z,6.20
2022-08-30T17:19:59.072Z,4.65
2022-08-30T17:22:25.993Z,5.35
2022-08-30T17:24:53.038Z,3.97
2022-08-30T17:27:19.629Z,5.95
2022-08-30T17:29:46.075Z,6.88
2022-08-30T17:32:12.543Z,8.52
2022-08-30T17:34:38.990Z,8.20
2022-08-30T17:37:06.185Z,7.97
2022-08-30T17:39:32.659Z,9.98
2022-08-30T17:41:59.184Z,10.23
2022-08-30T17:44:28.973Z,8.43
2022-08-30T17:46:57.212Z,12.75
2022-08-30T17:49:24.924Z,7.75
2022-08-30T17:51:56.082Z,8.73
2022-08-30T17:56:51.070Z,10.95
2022-08-30T17:59:17.887Z,11.20
2022-08-30T18:01:45.458Z,9.25
2022-08-30T18:04:14.270Z,9.80
2022-08-30T18:06:47.104Z,8.38
2022-08-30T18:09:14.566Z,8.25
2022-08-30T18:11:42.626Z,10.40
2022-08-30T18:14:11.367Z,7.88
2022-08-30T18:16:52.491Z,9.80
2022-08-30T18:19:21.630Z,10.20
2022-08-30T18:21:48.206Z,9.63
2022-08-30T18:24:16.002Z,10.95
2022-08-30T18:26:43.195Z,8.82
2022-08-30T18:29:10.222Z,10.68
2022-08-30T18:31:36.688Z,11.10
2022-08-30T18:34:03.680Z,9.82
2022-08-30T18:36:30.715Z,10.10
2022-08-30T18:38:58.067Z,10.57
2022-08-30T18:41:25.515Z,9.35
2022-08-30T18:44:05.853Z,8.98
2022-08-30T18:46:38.485Z,9.57
2022-08-30T18:51:49.399Z,9.50
2022-08-30T18:54:16.472Z,9.35
2022-08-30T18:56:44.993Z,9.07
2022-08-30T18:59:11.682Z,9.20
2022-08-30T19:01:38.351Z,7.55
2022-08-30T19:04:05.276Z,10.13
2022-08-30T19:06:31.776Z,10.35
2022-08-30T19:08:58.339Z,11.45
2022-08-30T19:11:26.267Z,11.45
2022-08-30T19:13:52.707Z,10.55
2022-08-30T19:16:20.459Z,9.27
2022-08-30T19:19:05.428Z,11.38
2022-08-30T19:21:35.435Z,9.60
2022-08-30T19:24:02.022Z,9.18
2022-08-30T19:26:28.978Z,6.30
2022-08-30T19:28:55.679Z,9.68
2022-08-30T19:31:49.325Z,14.65
2022-08-30T19:34:14.205Z,4.63
2022-08-30T19:36:40.837Z,8.00
2022-08-30T19:39:07.402Z,11.50
2022-08-30T19:41:34.109Z,9.00
2022-08-30T19:44:02.925Z,7.93
2022-08-30T19:46:30.057Z,8.45
2022-08-30T19:49:00.950Z,5.93
2022-08-30T19:51:27.432Z,7.32
2022-08-30T19:53:53.949Z,5.60
2022-08-30T19:56:24.410Z,6.63
2022-08-30T19:58:50.852Z,7.82
2022-08-30T20:01:32.719Z,7.68
2022-08-30T20:04:02.072Z,6.88
2022-08-30T20:06:30.184Z,5.95
2022-08-30T20:08:58.554Z,5.05
2022-08-30T20:11:27.953Z,6.38
2022-08-30T20:13:54.506Z,5.30
2022-08-30T20:16:20.994Z,6.45
2022-08-30T20:18:55.012Z,6.05
2022-08-30T20:21:21.472Z,5.75
2022-08-30T20:23:47.947Z,5.55
2022-08-30T20:26:14.970Z,4.82
2022-08-30T20:28:47.789Z,4.65
2022-08-30T20:31:14.347Z,3.58
2022-08-30T20:33:41.029Z,5.65
2022-08-30T20:36:14.429Z,3.80
2022-08-30T20:38:40.972Z,4.13
2022-08-30T20:41:12.208Z,4.07
2022-08-30T20:43:39.342Z,3.63
2022-08-30T20:46:17.113Z,2.67
2022-08-30T20:48:44.260Z,3.30
2022-08-30T20:51:15.141Z,2.70
2022-08-30T20:53:42.450Z,2.45
2022-08-30T20:56:14.688Z,2.85
2022-08-30T20:58:41.450Z,3.72
2022-08-30T21:01:09.576Z,2.95
2022-08-30T21:03:36.514Z,4.53
2022-08-30T21:06:03.103Z,3.03
2022-08-30T21:08:29.623Z,4.63
2022-08-30T21:10:56.172Z,3.67
2022-08-30T21:13:23.197Z,3.22
2022-08-30T21:15:54.932Z,3.38
2022-08-30T21:18:22.055Z,3.80
2022-08-30T21:20:48.551Z,3.25
2022-08-30T21:23:16.504Z,4.93
2022-08-30T21:25:43.513Z,3.20
2022-08-30T21:28:10.432Z,4.13
2022-08-30T21:30:37.445Z,4.10
2022-08-30T21:33:06.298Z,4.00
2022-08-30T21:35:51.392Z,4.05
2022-08-30T21:38:19.366Z,5.15
2022-08-30T21:40:46.892Z,5.75
2022-08-30T21:43:13.430Z,5.65
2022-08-30T21:45:41.510Z,4.80
2022-08-30T21:48:08.658Z,6.72
2022-08-30T21:50:41.767Z,8.80
2022-08-30T21:53:08.554Z,7.10
2022-08-30T21:55:35.033Z,9.13
2022-08-30T21:58:02.699Z,6.50
2022-08-30T22:00:30.577Z,6.60
2022-08-30T22:02:57.518Z,7.13
2022-08-30T22:05:24.036Z,9.00
2022-08-30T22:07:50.607Z,9.63
2022-08-30T22:10:17.693Z,9.98
2022-08-30T22:12:45.306Z,10.90
2022-08-30T22:15:11.788Z,6.78
2022-08-30T22:17:38.589Z,8.82
2022-08-30T22:20:06.466Z,6.90
2022-08-30T22:22:33.156Z,7.45
2022-08-30T22:24:59.678Z,9.75
2022-08-30T22:27:26.193Z,7.97
2022-08-30T22:29:52.739Z,9.13
2022-08-30T22:32:19.236Z,7.72
2022-08-30T22:34:46.103Z,7.70
2022-08-30T22:37:12.761Z,9.20
2022-08-30T22:39:39.278Z,10.27
2022-08-30T22:42:06.039Z,10.10
2022-08-30T22:44:32.785Z,7.60
2022-08-30T22:47:00.739Z,9.00
2022-08-30T22:49:27.511Z,7.97
2022-08-30T22:51:54.049Z,5.75
2022-08-30T22:54:20.495Z,7.20
2022-08-30T22:56:48.629Z,4.57
2022-08-30T22:59:15.092Z,6.95
2022-08-30T23:01:46.999Z,5.22
2022-08-30T23:06:40.353Z,9.35
2022-08-30T23:09:07.347Z,10.45
2022-08-30T23:11:34.349Z,8.32
2022-08-30T23:14:02.151Z,9.00
2022-08-30T23:16:30.594Z,8.52
2022-08-30T23:18:57.100Z,7.90
2022-08-30T23:21:26.040Z,10.20
2022-08-30T23:24:12.772Z,8.30
2022-08-30T23:26:58.405Z,8.32
2022-08-30T23:29:43.989Z,8.18
2022-08-30T23:32:29.535Z,8.25
2022-08-30T23:35:14.272Z,9.43
2022-08-30T23:37:59.182Z,7.32
2022-08-30T23:40:44.034Z,8.07
2022-08-30T23:43:29.774Z,7.65
2022-08-30T23:46:19.366Z,12.43
2022-08-30T23:49:05.848Z,5.85
2022-08-30T23:51:54.946Z,4.85
2022-08-30T23:54:39.741Z,7.80
2022-08-30T23:57:25.290Z,7.70
